Time;durP1;ratioP1;P1;durP2;ratioP2;P2;SDS_P1;SDS_P2;PMS_P1;PMS_P2;Temp;Humidity;BMP_temperature;BMP_pressure;BME280_temperature;BME280_humidity;BME280_pressure;Samples;Min_cycle;Max_cycle;Signal;HPM_P1;HPM_P2
2022/07/20 00:01:22;;;;;;;10.30;3.50;;;;;;;;;;5048176;28;20088;-89
2022/07/20 00:03:48;;;;;;;11.02;3.72;;;;;;;;;;5047736;28;20072;-89
2022/07/20 00:06:14;;;;;;;9.75;3.38;;;;;;;;;;5047783;28;20167;-89
2022/07/20 00:11:25;;;;;;;7.35;3.20;;;;;;;;;;5047804;28;20471;-89
2022/07/20 00:13:56;;;;;;;7.88;3.35;;;;;;;;;;5055312;28;20407;-90
2022/07/20 00:16:23;;;;;;;8.35;3.50;;;;;;;;;;5054977;28;20036;-90
2022/07/20 00:18:49;;;;;;;9.68;3.25;;;;;;;;;;5043972;28;20043;-89
2022/07/20 00:21:15;;;;;;;8.73;3.45;;;;;;;;;;5056602;28;20068;-88
2022/07/20 00:23:41;;;;;;;9.40;3.47;;;;;;;;;;5055701;28;20099;-89
2022/07/20 00:26:07;;;;;;;8.60;3.30;;;;;;;;;;5058660;28;20041;-89
2022/07/20 00:28:33;;;;;;;9.60;3.33;;;;;;;;;;5058031;28;20379;-89
2022/07/20 00:30:59;;;;;;;12.20;3.30;;;;;;;;;;5062256;28;20467;-89
2022/07/20 00:33:25;;;;;;;9.40;3.53;;;;;;;;;;5072419;28;20045;-89
2022/07/20 00:35:51;;;;;;;11.48;3.53;;;;;;;;;;5072985;28;20492;-89
2022/07/20 00:38:17;;;;;;;7.28;3.72;;;;;;;;;;5061993;28;20069;-90
2022/07/20 00:40:43;;;;;;;8.98;3.40;;;;;;;;;;5057747;28;20052;-91
2022/07/20 00:43:09;;;;;;;7.80;3.30;;;;;;;;;;5022436;28;20044;-89
2022/07/20 00:45:35;;;;;;;9.63;3.35;;;;;;;;;;5054798;28;20043;-90
2022/07/20 00:48:03;;;;;;;12.90;3.28;;;;;;;;;;5055584;28;20123;-90
2022/07/20 00:50:29;;;;;;;12.93;3.75;;;;;;;;;;5049419;28;20120;-90
2022/07/20 00:52:55;;;;;;;11.98;3.20;;;;;;;;;;5051469;28;20490;-90
2022/07/20 00:55:22;;;;;;;8.93;3.35;;;;;;;;;;5053247;28;20441;-90
2022/07/20 00:57:48;;;;;;;10.20;3.47;;;;;;;;;;5055833;28;20055;-90
2022/07/20 01:00:14;;;;;;;10.48;3.50;;;;;;;;;;5054815;28;20128;-90
2022/07/20 01:02:40;;;;;;;7.88;3.30;;;;;;;;;;5055344;28;20051;-90
2022/07/20 01:05:16;;;;;;;11.38;3.67;;;;;;;;;;5053797;28;20486;-89
2022/07/20 01:07:43;;;;;;;7.15;3.30;;;;;;;;;;5053888;28;20526;-89
2022/07/20 01:10:09;;;;;;;9.63;3.30;;;;;;;;;;5059319;28;20037;-90
2022/07/20 01:12:37;;;;;;;9.77;3.45;;;;;;;;;;5040935;28;20048;-89
2022/07/20 01:15:03;;;;;;;10.27;3.65;;;;;;;;;;5038930;28;20033;-90
2022/07/20 01:17:29;;;;;;;8.63;3.60;;;;;;;;;;5056553;28;20045;-90
2022/07/20 01:19:55;;;;;;;8.32;3.83;;;;;;;;;;5051232;28;20446;-89
2022/07/20 01:22:21;;;;;;;6.85;3.13;;;;;;;;;;5019891;28;20088;-90
2022/07/20 01:24:47;;;;;;;10.98;3.20;;;;;;;;;;5052520;28;20406;-90
2022/07/20 01:27:13;;;;;;;7.78;3.35;;;;;;;;;;5055706;28;20037;-90
2022/07/20 01:29:39;;;;;;;9.20;3.50;;;;;;;;;;5054862;28;20490;-90
2022/07/20 01:32:05;;;;;;;6.97;3.47;;;;;;;;;;5036632;28;20040;-89
2022/07/20 01:34:31;;;;;;;7.68;3.33;;;;;;;;;;5055387;28;20384;-90
2022/07/20 01:36:57;;;;;;;6.82;3.13;;;;;;;;;;5036864;28;20116;-89
2022/07/20 01:39:23;;;;;;;8.93;3.28;;;;;;;;;;5052616;28;20048;-90
2022/07/20 01:41:52;;;;;;;11.68;3.72;;;;;;;;;;5056244;28;20052;-90
2022/07/20 01:44:21;;;;;;;11.02;3.08;;;;;;;;;;5054518;28;20040;-89
2022/07/20 01:46:48;;;;;;;8.38;3.20;;;;;;;;;;5052146;28;20067;-89
2022/07/20 01:49:14;;;;;;;6.00;3.25;;;;;;;;;;5053838;28;20056;-89
2022/07/20 01:51:41;;;;;;;7.45;3.22;;;;;;;;;;5052140;28;20041;-89
2022/07/20 01:54:07;;;;;;;8.80;3.17;;;;;;;;;;5052006;28;20076;-90
2022/07/20 01:56:33;;;;;;;6.85;3.47;;;;;;;;;;5052900;28;20068;-89
2022/07/20 01:58:59;;;;;;;9.15;3.55;;;;;;;;;;5052814;28;20037;-89
2022/07/20 02:01:25;;;;;;;8.82;3.50;;;;;;;;;;5052597;28;20344;-88
2022/07/20 02:03:51;;;;;;;8.50;3.65;;;;;;;;;;5041356;28;20063;-89
2022/07/20 02:06:17;;;;;;;9.23;3.30;;;;;;;;;;5036274;28;20075;-89
2022/07/20 02:08:43;;;;;;;6.13;3.30;;;;;;;;;;5057653;28;20041;-90
2022/07/20 02:11:09;;;;;;;9.27;3.35;;;;;;;;;;5057321;28;20052;-90
2022/07/20 02:13:36;;;;;;;8.98;3.78;;;;;;;;;;5040470;28;20040;-89
2022/07/20 02:16:14;;;;;;;9.30;3.53;;;;;;;;;;5052976;28;20048;-90
2022/07/20 02:18:41;;;;;;;9.35;3.60;;;;;;;;;;5055018;28;20048;-90
2022/07/20 02:21:07;;;;;;;8.65;3.40;;;;;;;;;;5054120;28;20508;-90
2022/07/20 02:23:33;;;;;;;8.38;3.47;;;;;;;;;;5052815;28;20041;-89
2022/07/20 02:25:59;;;;;;;7.18;3.35;;;;;;;;;;5053881;28;20477;-88
2022/07/20 02:28:25;;;;;;;9.07;3.10;;;;;;;;;;5036784;28;20060;-88
2022/07/20 02:30:51;;;;;;;7.50;3.20;;;;;;;;;;5054459;28;20052;-90
2022/07/20 02:33:17;;;;;;;9.02;3.58;;;;;;;;;;5053080;28;20088;-90
2022/07/20 02:35:43;;;;;;;7.53;3.60;;;;;;;;;;5050998;28;20072;-90
2022/07/20 02:38:09;;;;;;;7.43;3.40;;;;;;;;;;5036181;28;20045;-90
2022/07/20 02:40:35;;;;;;;9.65;3.70;;;;;;;;;;5034059;28;20067;-89
2022/07/20 02:43:01;;;;;;;8.20;3.58;;;;;;;;;;5037267;28;20037;-90
2022/07/20 02:45:27;;;;;;;8.18;3.53;;;;;;;;;;5048133;28;20067;-89
2022/07/20 02:47:54;;;;;;;9.57;3.45;;;;;;;;;;5043024;28;20049;-90
2022/07/20 02:50:20;;;;;;;8.13;3.45;;;;;;;;;;5053108;28;20502;-90
2022/07/20 02:52:46;;;;;;;7.60;3.80;;;;;;;;;;5053725;28;20045;-89
2022/07/20 02:55:13;;;;;;;10.10;4.00;;;;;;;;;;5039654;28;20044;-89
2022/07/20 02:57:39;;;;;;;10.27;3.80;;;;;;;;;;5065719;28;20092;-88
2022/07/20 03:00:06;;;;;;;11.52;3.55;;;;;;;;;;5069252;28;20045;-90
2022/07/20 03:02:32;;;;;;;9.80;3.60;;;;;;;;;;5060222;28;20045;-89
2022/07/20 03:04:58;;;;;;;9.60;4.03;;;;;;;;;;5051963;28;20151;-89
2022/07/20 03:07:24;;;;;;;8.90;3.60;;;;;;;;;;5055623;28;20402;-89
2022/07/20 03:09:50;;;;;;;9.90;3.90;;;;;;;;;;5053540;28;20095;-89
2022/07/20 03:12:16;;;;;;;12.98;3.80;;;;;;;;;;5054100;28;20128;-89
2022/07/20 03:14:42;;;;;;;10.95;3.80;;;;;;;;;;5050780;28;20128;-89
2022/07/20 03:17:08;;;;;;;9.45;3.47;;;;;;;;;;5053658;28;20429;-89
2022/07/20 03:19:34;;;;;;;10.30;3.80;;;;;;;;;;5056120;28;20088;-89
2022/07/20 03:22:00;;;;;;;10.75;4.50;;;;;;;;;;5057342;28;20037;-89
2022/07/20 03:24:26;;;;;;;9.18;3.50;;;;;;;;;;5056851;28;20112;-88
2022/07/20 03:26:52;;;;;;;8.82;3.55;;;;;;;;;;5040693;28;20571;-88
2022/07/20 03:29:18;;;;;;;8.95;4.00;;;;;;;;;;5046126;28;20041;-88
2022/07/20 03:31:44;;;;;;;8.43;3.72;;;;;;;;;;5055845;28;20048;-89
2022/07/20 03:34:10;;;;;;;10.35;4.00;;;;;;;;;;5054968;28;20040;-89
2022/07/20 03:36:36;;;;;;;7.25;3.67;;;;;;;;;;5055744;28;20103;-89
2022/07/20 03:39:02;;;;;;;9.75;3.92;;;;;;;;;;5032457;28;20073;-89
2022/07/20 03:41:28;;;;;;;7.95;3.60;;;;;;;;;;5037599;28;20090;-88
2022/07/20 03:43:54;;;;;;;9.45;4.20;;;;;;;;;;5057477;28;20037;-90
2022/07/20 03:46:20;;;;;;;10.63;4.25;;;;;;;;;;5051143;28;20136;-89
2022/07/20 03:48:46;;;;;;;6.70;4.15;;;;;;;;;;5055885;28;20041;-90
2022/07/20 03:51:12;;;;;;;9.85;3.78;;;;;;;;;;5056676;28;20048;-90
2022/07/20 03:53:38;;;;;;;10.52;3.70;;;;;;;;;;5057288;28;20127;-90
2022/07/20 03:56:04;;;;;;;9.68;4.10;;;;;;;;;;5035388;28;20123;-90
2022/07/20 03:58:30;;;;;;;7.97;4.20;;;;;;;;;;5054706;28;20459;-89
2022/07/20 04:00:56;;;;;;;11.35;4.03;;;;;;;;;;5036959;28;20475;-90
2022/07/20 04:03:22;;;;;;;8.60;4.18;;;;;;;;;;5056065;28;20049;-89
2022/07/20 04:05:48;;;;;;;6.82;3.85;;;;;;;;;;5050453;28;20332;-89
2022/07/20 04:08:14;;;;;;;7.05;4.10;;;;;;;;;;5050844;28;20045;-88
2022/07/20 04:10:40;;;;;;;10.50;4.43;;;;;;;;;;5058334;28;20048;-89
2022/07/20 04:13:06;;;;;;;15.88;4.00;;;;;;;;;;5066951;28;20071;-87
2022/07/20 04:15:33;;;;;;;8.63;4.32;;;;;;;;;;5046496;28;20521;-88
2022/07/20 04:17:59;;;;;;;10.35;4.30;;;;;;;;;;5048331;28;20041;-87
2022/07/20 04:20:25;;;;;;;10.05;3.85;;;;;;;;;;5066924;28;20052;-87
2022/07/20 04:22:51;;;;;;;10.02;4.28;;;;;;;;;;5071457;28;20045;-87
2022/07/20 04:25:18;;;;;;;10.60;4.10;;;;;;;;;;5059620;28;20071;-88
2022/07/20 04:27:44;;;;;;;8.60;4.07;;;;;;;;;;5070882;28;20049;-88
2022/07/20 04:30:11;;;;;;;9.20;4.32;;;;;;;;;;5074452;28;20040;-87
2022/07/20 04:32:37;;;;;;;9.38;3.83;;;;;;;;;;5056653;28;20041;-88
2022/07/20 04:35:03;;;;;;;6.93;3.78;;;;;;;;;;5051029;28;20052;-88
2022/07/20 04:37:29;;;;;;;7.38;3.90;;;;;;;;;;5067214;28;20041;-87
2022/07/20 04:39:55;;;;;;;8.45;4.57;;;;;;;;;;5067006;28;20478;-88
2022/07/20 04:42:21;;;;;;;11.50;4.18;;;;;;;;;;5057505;28;20045;-89
2022/07/20 04:44:47;;;;;;;16.23;4.13;;;;;;;;;;5054461;28;20041;-88
2022/07/20 04:47:13;;;;;;;8.73;4.32;;;;;;;;;;5050416;28;20410;-89
2022/07/20 04:49:39;;;;;;;9.57;5.30;;;;;;;;;;5054418;28;20049;-89
2022/07/20 04:52:05;;;;;;;10.30;4.03;;;;;;;;;;5056029;28;20044;-89
2022/07/20 04:54:31;;;;;;;9.98;4.45;;;;;;;;;;5053055;28;20045;-88
2022/07/20 04:56:57;;;;;;;11.18;4.07;;;;;;;;;;5044405;28;20060;-88
2022/07/20 04:59:23;;;;;;;8.25;4.30;;;;;;;;;;5055320;28;20045;-89
2022/07/20 05:01:49;;;;;;;8.27;4.32;;;;;;;;;;5054586;28;20064;-89
2022/07/20 05:04:15;;;;;;;12.40;4.85;;;;;;;;;;5057768;28;20079;-89
2022/07/20 05:06:41;;;;;;;6.63;4.05;;;;;;;;;;5038235;28;20132;-90
2022/07/20 05:09:09;;;;;;;7.57;4.30;;;;;;;;;;5053529;28;20516;-89
2022/07/20 05:11:35;;;;;;;11.18;4.25;;;;;;;;;;5054985;28;20052;-89
2022/07/20 05:14:02;;;;;;;10.38;4.18;;;;;;;;;;5021966;28;20129;-89
2022/07/20 05:16:28;;;;;;;11.35;4.57;;;;;;;;;;5055636;28;20220;-89
2022/07/20 05:18:54;;;;;;;8.73;4.00;;;;;;;;;;5071406;28;20060;-89
2022/07/20 05:21:20;;;;;;;7.35;4.18;;;;;;;;;;5076148;28;20091;-90
2022/07/20 05:23:46;;;;;;;8.52;4.03;;;;;;;;;;5055510;28;20056;-90
2022/07/20 05:26:12;;;;;;;7.85;4.20;;;;;;;;;;5056163;28;20055;-89
2022/07/20 05:28:41;;;;;;;8.02;3.60;;;;;;;;;;5053458;28;20048;-89
2022/07/20 05:31:08;;;;;;;5.95;3.78;;;;;;;;;;5056048;28;20045;-89
2022/07/20 05:33:35;;;;;;;8.43;4.05;;;;;;;;;;5054510;28;20040;-87
2022/07/20 05:36:02;;;;;;;9.45;3.95;;;;;;;;;;5053321;28;20041;-87
2022/07/20 05:38:29;;;;;;;8.27;3.60;;;;;;;;;;5054930;28;20048;-86
2022/07/20 05:40:55;;;;;;;10.65;4.30;;;;;;;;;;5049753;28;20502;-87
2022/07/20 05:43:22;;;;;;;7.93;4.55;;;;;;;;;;5052328;28;20041;-88
2022/07/20 05:45:48;;;;;;;9.80;4.10;;;;;;;;;;5054725;28;20057;-88
2022/07/20 05:48:15;;;;;;;11.90;3.88;;;;;;;;;;5051671;28;20059;-88
2022/07/20 05:50:41;;;;;;;10.52;4.22;;;;;;;;;;5055693;28;20116;-89
2022/07/20 05:53:07;;;;;;;13.60;4.20;;;;;;;;;;5056960;28;20049;-90
2022/07/20 05:55:34;;;;;;;11.25;4.13;;;;;;;;;;5036178;28;20398;-87
2022/07/20 05:58:00;;;;;;;9.07;4.35;;;;;;;;;;5053782;28;20068;-88
2022/07/20 06:00:27;;;;;;;9.50;4.20;;;;;;;;;;5055965;28;20045;-87
2022/07/20 06:02:53;;;;;;;7.78;3.95;;;;;;;;;;5054786;28;20056;-87
2022/07/20 06:05:19;;;;;;;8.38;3.55;;;;;;;;;;5035604;28;20049;-89
2022/07/20 06:07:45;;;;;;;8.80;3.67;;;;;;;;;;5056898;28;20128;-89
2022/07/20 06:10:11;;;;;;;7.63;3.45;;;;;;;;;;5058101;28;20056;-87
2022/07/20 06:12:37;;;;;;;8.48;3.63;;;;;;;;;;5056460;28;20102;-89
2022/07/20 06:15:04;;;;;;;9.52;4.10;;;;;;;;;;5050157;28;20052;-88
2022/07/20 06:17:37;;;;;;;10.85;3.92;;;;;;;;;;5056227;28;20037;-89
2022/07/20 06:20:07;;;;;;;11.02;3.80;;;;;;;;;;5055357;28;20045;-90
2022/07/20 06:22:34;;;;;;;9.57;3.50;;;;;;;;;;5057481;28;20049;-87
2022/07/20 06:25:00;;;;;;;10.20;3.90;;;;;;;;;;5056680;28;20506;-88
2022/07/20 06:27:26;;;;;;;9.07;3.75;;;;;;;;;;5071982;28;20107;-88
2022/07/20 06:29:52;;;;;;;7.97;3.58;;;;;;;;;;5073846;28;20051;-88
2022/07/20 06:32:18;;;;;;;7.25;3.50;;;;;;;;;;5052508;28;20044;-89
2022/07/20 06:34:45;;;;;;;9.88;4.15;;;;;;;;;;5052988;28;20389;-90
2022/07/20 06:37:11;;;;;;;10.88;3.78;;;;;;;;;;5054872;28;20041;-88
2022/07/20 06:39:37;;;;;;;7.75;3.40;;;;;;;;;;5055315;28;20037;-88
2022/07/20 06:42:03;;;;;;;8.65;3.72;;;;;;;;;;5053566;28;20398;-89
2022/07/20 06:44:29;;;;;;;8.52;3.67;;;;;;;;;;5041977;28;20173;-88
2022/07/20 06:46:55;;;;;;;8.85;3.67;;;;;;;;;;5055550;28;20084;-88
2022/07/20 06:49:21;;;;;;;7.47;3.60;;;;;;;;;;5054582;28;20041;-88
2022/07/20 06:51:47;;;;;;;6.32;3.58;;;;;;;;;;5052931;28;20045;-88
2022/07/20 06:54:13;;;;;;;10.13;3.85;;;;;;;;;;5053550;28;20159;-89
2022/07/20 06:56:39;;;;;;;9.20;3.60;;;;;;;;;;5059212;28;20601;-89
2022/07/20 06:59:05;;;;;;;10.20;3.83;;;;;;;;;;5059495;28;20092;-89
2022/07/20 07:01:31;;;;;;;7.88;3.97;;;;;;;;;;5059850;28;20462;-88
2022/07/20 07:03:57;;;;;;;7.32;3.50;;;;;;;;;;5059844;28;20041;-90
2022/07/20 07:06:27;;;;;;;8.07;3.53;;;;;;;;;;5056183;28;20065;-88
2022/07/20 07:08:53;;;;;;;8.45;3.58;;;;;;;;;;5041796;28;20124;-88
2022/07/20 07:11:19;;;;;;;12.05;3.95;;;;;;;;;;5029476;28;20116;-88
2022/07/20 07:13:45;;;;;;;10.02;3.60;;;;;;;;;;5059373;28;20128;-89
2022/07/20 07:16:11;;;;;;;9.00;4.00;;;;;;;;;;5058589;28;20085;-89
2022/07/20 07:18:37;;;;;;;6.70;3.75;;;;;;;;;;5058687;28;20433;-89
2022/07/20 07:21:03;;;;;;;8.90;3.47;;;;;;;;;;5055621;28;20509;-89
2022/07/20 07:23:29;;;;;;;9.07;3.55;;;;;;;;;;5057499;28;20041;-89
2022/07/20 07:25:55;;;;;;;12.07;3.90;;;;;;;;;;5055324;28;20053;-89
2022/07/20 07:28:22;;;;;;;9.10;4.30;;;;;;;;;;5047975;28;20044;-91
2022/07/20 07:30:50;;;;;;;9.50;3.90;;;;;;;;;;5040588;28;20072;-89
2022/07/20 07:33:16;;;;;;;15.43;3.70;;;;;;;;;;5053741;28;20068;-89
2022/07/20 07:35:42;;;;;;;9.07;3.85;;;;;;;;;;5070794;28;20052;-88
2022/07/20 07:38:08;;;;;;;9.75;3.85;;;;;;;;;;5065557;28;20471;-88
2022/07/20 07:40:34;;;;;;;8.27;3.90;;;;;;;;;;5069719;28;20124;-89
2022/07/20 07:43:00;;;;;;;8.43;3.53;;;;;;;;;;5065954;28;20057;-88
2022/07/20 07:45:26;;;;;;;11.68;4.13;;;;;;;;;;5074689;28;20045;-88
2022/07/20 07:47:52;;;;;;;11.60;4.18;;;;;;;;;;5072639;28;20049;-89
2022/07/20 07:50:18;;;;;;;8.80;4.22;;;;;;;;;;5046610;28;20422;-89
2022/07/20 07:52:44;;;;;;;10.20;3.83;;;;;;;;;;5068406;28;20120;-90
2022/07/20 07:55:10;;;;;;;10.05;3.97;;;;;;;;;;5065338;28;20045;-89
2022/07/20 07:57:36;;;;;;;9.52;3.80;;;;;;;;;;5065422;28;20056;-88
2022/07/20 08:00:04;;;;;;;10.35;4.00;;;;;;;;;;5044247;28;20103;-89
2022/07/20 08:02:30;;;;;;;10.45;4.45;;;;;;;;;;5040987;28;20391;-88
2022/07/20 08:04:56;;;;;;;16.23;4.53;;;;;;;;;;5038848;28;20053;-89
2022/07/20 08:07:22;;;;;;;10.43;4.40;;;;;;;;;;5033629;28;20041;-90
2022/07/20 08:09:48;;;;;;;13.50;4.70;;;;;;;;;;5052749;28;20263;-88
2022/07/20 08:12:14;;;;;;;13.20;4.70;;;;;;;;;;5060607;28;20401;-88
2022/07/20 08:14:40;;;;;;;11.95;4.80;;;;;;;;;;5057579;28;20041;-88
2022/07/20 08:17:06;;;;;;;14.30;4.57;;;;;;;;;;5054936;28;20627;-86
2022/07/20 08:19:32;;;;;;;14.63;5.07;;;;;;;;;;5052384;28;20052;-88
2022/07/20 08:21:58;;;;;;;13.18;5.07;;;;;;;;;;5037829;28;20056;-90
2022/07/20 08:24:24;;;;;;;12.48;5.10;;;;;;;;;;5054356;28;20127;-88
2022/07/20 08:26:50;;;;;;;14.32;5.85;;;;;;;;;;5054228;28;20049;-87
2022/07/20 08:29:16;;;;;;;11.68;6.03;;;;;;;;;;5051512;28;20037;-88
2022/07/20 08:31:42;;;;;;;13.75;5.90;;;;;;;;;;5055217;28;20098;-89
2022/07/20 08:34:08;;;;;;;15.43;7.18;;;;;;;;;;5054688;28;20088;-90
2022/07/20 08:36:34;;;;;;;16.60;7.43;;;;;;;;;;5054825;28;20120;-88
2022/07/20 08:39:01;;;;;;;11.88;6.78;;;;;;;;;;5056113;28;20048;-88
2022/07/20 08:41:27;;;;;;;16.38;8.93;;;;;;;;;;5039008;28;20407;-88
2022/07/20 08:43:53;;;;;;;16.23;8.13;;;;;;;;;;5053492;28;20033;-89
2022/07/20 08:46:22;;;;;;;14.80;8.40;;;;;;;;;;5058108;28;20074;-89
2022/07/20 08:48:49;;;;;;;18.50;9.55;;;;;;;;;;5054734;28;20048;-88
2022/07/20 08:51:15;;;;;;;14.70;9.30;;;;;;;;;;5035191;28;20079;-88
2022/07/20 08:53:42;;;;;;;17.40;10.43;;;;;;;;;;5047793;28;20553;-89
2022/07/20 08:56:08;;;;;;;24.27;12.50;;;;;;;;;;5051013;28;20080;-91
2022/07/20 08:58:34;;;;;;;20.48;13.00;;;;;;;;;;5036521;28;20390;-87
2022/07/20 09:01:00;;;;;;;32.13;15.48;;;;;;;;;;5043022;28;20461;-86
2022/07/20 09:03:26;;;;;;;22.98;14.63;;;;;;;;;;5057863;28;20045;-89
2022/07/20 09:06:06;;;;;;;30.38;15.25;;;;;;;;;;5053038;28;20121;-92
2022/07/20 09:08:32;;;;;;;20.23;14.27;;;;;;;;;;5047206;28;20115;-89
2022/07/20 09:11:00;;;;;;;29.05;15.00;;;;;;;;;;5035868;28;20041;-88
2022/07/20 09:13:28;;;;;;;42.88;17.45;;;;;;;;;;5035810;28;20124;-89
2022/07/20 09:15:54;;;;;;;24.83;16.92;;;;;;;;;;5037709;28;20507;-89
2022/07/20 09:18:24;;;;;;;29.67;16.52;;;;;;;;;;5053699;28;20041;-88
2022/07/20 09:20:54;;;;;;;19.83;14.77;;;;;;;;;;5055344;28;20082;-88
2022/07/20 09:23:22;;;;;;;23.73;15.73;;;;;;;;;;5056412;28;20045;-89
2022/07/20 09:25:52;;;;;;;18.67;14.90;;;;;;;;;;5057978;28;20049;-89
2022/07/20 09:28:18;;;;;;;22.02;15.65;;;;;;;;;;5056599;28;20124;-87
2022/07/20 09:30:55;;;;;;;20.70;15.68;;;;;;;;;;5055297;28;20394;-88
2022/07/20 09:33:28;;;;;;;22.02;16.77;;;;;;;;;;5055429;28;20052;-88
2022/07/20 09:35:54;;;;;;;27.02;17.30;;;;;;;;;;5053255;28;20450;-88
2022/07/20 09:38:20;;;;;;;26.30;17.40;;;;;;;;;;5056991;28;20041;-89
2022/07/20 09:40:47;;;;;;;25.20;17.60;;;;;;;;;;5055769;28;20098;-87
2022/07/20 09:43:30;;;;;;;206.15;43.63;;;;;;;;;;5016469;28;20087;-87
2022/07/20 09:46:08;;;;;;;25.13;18.15;;;;;;;;;;5053806;28;20045;-86
2022/07/20 09:48:39;;;;;;;24.63;19.17;;;;;;;;;;5055807;28;20060;-88
2022/07/20 09:51:16;;;;;;;148.70;32.33;;;;;;;;;;5054536;28;20506;-88
2022/07/20 09:53:42;;;;;;;40.35;22.38;;;;;;;;;;5055830;28;20450;-88
2022/07/20 09:56:09;;;;;;;31.73;21.10;;;;;;;;;;5056360;28;20083;-88
2022/07/20 09:58:35;;;;;;;25.23;19.50;;;;;;;;;;5052691;28;20453;-87
2022/07/20 10:01:01;;;;;;;27.95;20.75;;;;;;;;;;5049783;28;20511;-88
2022/07/20 10:03:28;;;;;;;26.75;20.70;;;;;;;;;;5044927;28;20037;-87
2022/07/20 10:05:55;;;;;;;26.73;20.77;;;;;;;;;;5049606;28;20448;-86
2022/07/20 10:08:21;;;;;;;29.50;20.52;;;;;;;;;;5053084;28;20450;-85
2022/07/20 10:10:47;;;;;;;29.92;21.25;;;;;;;;;;5051780;28;20039;-87
2022/07/20 10:13:13;;;;;;;26.40;18.42;;;;;;;;;;5048502;28;20190;-86
2022/07/20 10:15:52;;;;;;;25.88;19.15;;;;;;;;;;5053435;28;20049;-87
2022/07/20 10:18:19;;;;;;;25.17;19.83;;;;;;;;;;5051922;28;20033;-85
2022/07/20 10:20:45;;;;;;;24.85;19.60;;;;;;;;;;5053193;28;20041;-86
2022/07/20 10:23:14;;;;;;;26.27;19.88;;;;;;;;;;5052488;28;20411;-88
2022/07/20 10:25:40;;;;;;;21.98;19.23;;;;;;;;;;5056065;28;20049;-87
2022/07/20 10:28:26;;;;;;;24.10;20.08;;;;;;;;;;5019576;28;20478;-87
2022/07/20 10:30:56;;;;;;;24.85;19.05;;;;;;;;;;5034912;28;20041;-87
2022/07/20 10:33:23;;;;;;;26.58;18.30;;;;;;;;;;5052357;28;20045;-87
2022/07/20 10:35:50;;;;;;;24.50;17.35;;;;;;;;;;5051709;28;20044;-86
2022/07/20 10:38:19;;;;;;;27.40;18.65;;;;;;;;;;5056821;28;20084;-85
2022/07/20 10:44:08;;;;;;;23.90;17.98;;;;;;;;;;5047290;28;20052;-88
2022/07/20 10:46:35;;;;;;;24.65;17.08;;;;;;;;;;5052955;28;20518;-87
2022/07/20 10:49:01;;;;;;;19.40;16.38;;;;;;;;;;5054075;28;20106;-86
2022/07/20 10:51:27;;;;;;;25.40;16.75;;;;;;;;;;5051541;28;20494;-86
2022/07/20 10:53:53;;;;;;;21.25;16.73;;;;;;;;;;5037049;28;20049;-86
2022/07/20 10:56:29;;;;;;;20.58;16.33;;;;;;;;;;5048389;28;20041;-85
2022/07/20 10:59:00;;;;;;;23.95;16.10;;;;;;;;;;5033489;28;20049;-85
2022/07/20 11:01:26;;;;;;;24.33;16.52;;;;;;;;;;5044847;28;20075;-87
2022/07/20 11:03:52;;;;;;;22.27;15.50;;;;;;;;;;5052096;28;20037;-85
2022/07/20 11:06:23;;;;;;;22.20;15.27;;;;;;;;;;5049968;28;20065;-85
2022/07/20 11:08:49;;;;;;;22.45;15.32;;;;;;;;;;5052708;28;20081;-86
2022/07/20 11:11:35;;;;;;;23.30;16.08;;;;;;;;;;5052728;28;20063;-85
2022/07/20 11:14:04;;;;;;;23.27;15.68;;;;;;;;;;5051692;28;20049;-86
2022/07/20 11:16:31;;;;;;;21.05;13.07;;;;;;;;;;5030451;28;20037;-86
2022/07/20 11:18:58;;;;;;;17.23;13.95;;;;;;;;;;5053948;28;20403;-85
2022/07/20 11:21:28;;;;;;;17.95;13.52;;;;;;;;;;5052240;28;20041;-86
2022/07/20 11:23:54;;;;;;;19.17;13.10;;;;;;;;;;5035520;28;20067;-86
2022/07/20 11:26:21;;;;;;;16.65;12.98;;;;;;;;;;5050806;28;20490;-85
2022/07/20 11:28:48;;;;;;;20.63;13.75;;;;;;;;;;5043086;28;20037;-84
2022/07/20 11:31:15;;;;;;;18.10;12.90;;;;;;;;;;5052564;28;20402;-85
2022/07/20 11:33:42;;;;;;;17.13;11.98;;;;;;;;;;5054820;28;20049;-84
2022/07/20 11:36:10;;;;;;;14.32;11.85;;;;;;;;;;5038615;28;20075;-84
2022/07/20 11:38:45;;;;;;;21.77;12.18;;;;;;;;;;5031936;28;20045;-85
2022/07/20 11:41:15;;;;;;;15.50;10.60;;;;;;;;;;5055655;28;20406;-85
2022/07/20 11:43:41;;;;;;;17.48;11.13;;;;;;;;;;5054721;28;20045;-85
2022/07/20 11:46:08;;;;;;;19.02;10.60;;;;;;;;;;5055638;28;20123;-84
2022/07/20 11:48:34;;;;;;;17.13;11.27;;;;;;;;;;5040828;28;20544;-84
2022/07/20 11:51:00;;;;;;;17.95;11.43;;;;;;;;;;5059247;28;20032;-84
2022/07/20 11:53:31;;;;;;;13.27;10.35;;;;;;;;;;5049900;28;20037;-86
2022/07/20 11:55:57;;;;;;;14.40;10.30;;;;;;;;;;5048813;28;20076;-86
2022/07/20 11:58:31;;;;;;;13.88;10.48;;;;;;;;;;5048857;28;20036;-87
2022/07/20 12:00:57;;;;;;;17.98;9.65;;;;;;;;;;5051893;28;20049;-84
2022/07/20 12:03:26;;;;;;;13.70;8.50;;;;;;;;;;5055692;28;20100;-86
2022/07/20 12:05:52;;;;;;;14.43;9.15;;;;;;;;;;5057141;28;20548;-87
2022/07/20 12:08:19;;;;;;;16.30;9.40;;;;;;;;;;5036967;28;20045;-85
2022/07/20 12:10:45;;;;;;;15.70;9.85;;;;;;;;;;5051456;28;20041;-85
2022/07/20 12:13:13;;;;;;;16.95;9.38;;;;;;;;;;5051177;28;20435;-86
2022/07/20 12:15:39;;;;;;;12.13;8.90;;;;;;;;;;5051637;28;20049;-86
2022/07/20 12:18:06;;;;;;;15.27;9.02;;;;;;;;;;5047580;28;20486;-86
2022/07/20 12:20:32;;;;;;;15.77;9.25;;;;;;;;;;5049741;28;20048;-87
2022/07/20 12:23:01;;;;;;;12.15;8.75;;;;;;;;;;5050856;28;20041;-86
2022/07/20 12:25:37;;;;;;;12.13;8.90;;;;;;;;;;5048981;28;20051;-85
2022/07/20 12:28:04;;;;;;;13.35;9.30;;;;;;;;;;5047726;28;20041;-85
2022/07/20 12:30:34;;;;;;;13.07;8.52;;;;;;;;;;5013477;28;20047;-86
2022/07/20 12:33:11;;;;;;;12.93;7.80;;;;;;;;;;5030856;28;20041;-85
2022/07/20 12:35:38;;;;;;;12.68;7.93;;;;;;;;;;5052590;28;20097;-86
2022/07/20 12:38:05;;;;;;;16.70;7.78;;;;;;;;;;5051248;28;20048;-87
2022/07/20 12:40:38;;;;;;;12.68;7.03;;;;;;;;;;5051931;28;20049;-86
2022/07/20 12:43:06;;;;;;;11.70;7.18;;;;;;;;;;5051893;28;20041;-86
2022/07/20 12:45:33;;;;;;;13.25;7.20;;;;;;;;;;5049158;28;20041;-87
2022/07/20 12:47:59;;;;;;;12.82;7.38;;;;;;;;;;5049364;28;20049;-87
2022/07/20 12:50:25;;;;;;;11.95;7.22;;;;;;;;;;5047044;28;20171;-87
2022/07/20 12:52:51;;;;;;;10.98;6.70;;;;;;;;;;5049592;28;20056;-85
2022/07/20 12:55:17;;;;;;;13.65;7.53;;;;;;;;;;5046295;28;20444;-86
2022/07/20 12:57:43;;;;;;;12.38;7.18;;;;;;;;;;5031163;28;20045;-85
2022/07/20 13:00:10;;;;;;;12.75;7.43;;;;;;;;;;5043943;28;20046;-84
2022/07/20 13:02:36;;;;;;;12.93;7.40;;;;;;;;;;5045810;28;20091;-84
2022/07/20 13:05:02;;;;;;;10.98;6.97;;;;;;;;;;5048498;28;20048;-85
2022/07/20 13:07:28;;;;;;;13.27;7.55;;;;;;;;;;5050634;28;20085;-84
2022/07/20 13:09:54;;;;;;;12.43;7.82;;;;;;;;;;5048602;28;20101;-84
2022/07/20 13:12:20;;;;;;;11.93;8.20;;;;;;;;;;5034027;28;20068;-84
2022/07/20 13:14:46;;;;;;;14.48;8.23;;;;;;;;;;5046095;28;20037;-85
2022/07/20 13:17:12;;;;;;;17.88;8.88;;;;;;;;;;5049855;28;20073;-84
2022/07/20 13:19:38;;;;;;;12.35;8.05;;;;;;;;;;5052872;28;20068;-84
2022/07/20 13:22:04;;;;;;;13.35;8.15;;;;;;;;;;5026493;28;20080;-84
2022/07/20 13:24:30;;;;;;;14.20;8.25;;;;;;;;;;5030965;28;20038;-83
2022/07/20 13:26:56;;;;;;;12.68;6.78;;;;;;;;;;5043093;28;20045;-85
2022/07/20 13:29:24;;;;;;;11.70;6.50;;;;;;;;;;5041731;28;20042;-86
2022/07/20 13:31:50;;;;;;;11.80;6.60;;;;;;;;;;5045359;28;20041;-86
2022/07/20 13:34:16;;;;;;;14.13;7.43;;;;;;;;;;5048469;28;20491;-86
2022/07/20 13:36:42;;;;;;;10.65;6.72;;;;;;;;;;5048861;28;20561;-85
2022/07/20 13:39:08;;;;;;;13.80;6.43;;;;;;;;;;5051006;28;20060;-86
2022/07/20 13:41:34;;;;;;;11.60;6.20;;;;;;;;;;5047866;28;20090;-85
2022/07/20 13:44:00;;;;;;;11.85;6.22;;;;;;;;;;5047970;28;20414;-83
2022/07/20 13:46:27;;;;;;;10.90;6.60;;;;;;;;;;5043863;28;20053;-84
2022/07/20 13:48:56;;;;;;;12.98;6.03;;;;;;;;;;5044561;28;20551;-87
2022/07/20 13:51:22;;;;;;;10.60;6.25;;;;;;;;;;5045616;28;20048;-87
2022/07/20 13:53:48;;;;;;;10.80;6.10;;;;;;;;;;5025653;28;20041;-86
2022/07/20 13:56:14;;;;;;;11.98;6.13;;;;;;;;;;5028138;28;20033;-86
2022/07/20 13:58:40;;;;;;;12.15;5.93;;;;;;;;;;5048405;28;20051;-85
2022/07/20 14:01:07;;;;;;;13.55;6.40;;;;;;;;;;5047129;28;20483;-84
2022/07/20 14:03:33;;;;;;;9.93;5.97;;;;;;;;;;5029109;28;20402;-86
2022/07/20 14:05:59;;;;;;;9.77;6.10;;;;;;;;;;5046221;28;20056;-85
2022/07/20 14:08:25;;;;;;;9.30;5.18;;;;;;;;;;5044996;28;20037;-86
2022/07/20 14:10:51;;;;;;;8.52;4.95;;;;;;;;;;5049101;28;20044;-84
2022/07/20 14:13:18;;;;;;;8.07;5.03;;;;;;;;;;5042109;28;20040;-86
2022/07/20 14:15:44;;;;;;;9.48;5.65;;;;;;;;;;5042326;28;20041;-87
2022/07/20 14:18:11;;;;;;;9.82;5.70;;;;;;;;;;5042425;28;20045;-84
2022/07/20 14:20:37;;;;;;;14.05;5.72;;;;;;;;;;5009965;28;20042;-85
2022/07/20 14:23:03;;;;;;;8.38;5.80;;;;;;;;;;5044905;28;20044;-85
2022/07/20 14:25:29;;;;;;;9.63;6.15;;;;;;;;;;5050984;28;20096;-84
2022/07/20 14:27:56;;;;;;;10.25;6.45;;;;;;;;;;5050780;28;20036;-85
2022/07/20 14:30:22;;;;;;;11.45;7.00;;;;;;;;;;5040980;28;20171;-85
2022/07/20 14:32:49;;;;;;;11.52;7.55;;;;;;;;;;5047036;28;20112;-83
2022/07/20 14:35:15;;;;;;;11.57;7.13;;;;;;;;;;5022395;28;20045;-87
2022/07/20 14:37:41;;;;;;;10.85;6.80;;;;;;;;;;5045532;28;20049;-84